Main page
METAR-TAF:

METAR-TAF

Airports :

Perm International Airport

Perm, Russia

latitude: 58-00N, longitude: 056-15E, elevation: 170 m

Current weather observation

The report was made 16 minutes ago, at 19:00 UTC
Wind 17 kt from the Southwest
Temperature 1°C
Humidity 93%
Pressure 1013 hPa
Visibility 10 km or more
Overcast at a height of 1400 ft

METAR: USPP 091900Z 22009MPS 9999 OVC014 01/M00 Q1013 R21/290250 NOSIG RMK QFE749

Time: 00:16 (19:16 UTC)

Forecast

The report was made 2 hours and 18 minutes ago, at 16:58 UTC
Forecast valid from 09 at 18 UTC to 10 at 18 UTC
Wind 14 kt from the Southwest with gusts up to 31 kt
Visibility: 6000 m
Broken clouds at a height of 1100 ft
light snow, rain
Temporary
from 09 at 18 UTC to 10 at 04 UTC
Visibility: 3100 m
Overcast at a height of 600 ft
(light) freezing, rain, light snow

TAF: USPP 091658Z 0918/1018 22007G16MPS 6000 -SNRA BKN011 TEMPO 0918/1004 3100 -FZRA -SN OVC006

Weather observations and forecasts of more than 4000 airports (METAR and TAF reports).

The available stations are represented by yellow and red dots on the map.

Hover mouse over dot to see the name of the station.

Then click to see weather observations and forecasts.

To change the map : click on the green buttons with a black cross to zoom in, on the green button with a dash to zoom out, or on the green arrows for adjacent maps.


METAR-TAF: